sensor_id;sensor_type;location;lat;lon;timestamp;temperature;humidity
19908;DHT22;10116;53.112;7.356;2023-08-21T00:00:44;27.50;99.90
19908;DHT22;10116;53.112;7.356;2023-08-21T00:03:10;27.50;99.90
19908;DHT22;10116;53.112;7.356;2023-08-21T00:05:35;27.50;99.90
19908;DHT22;10116;53.112;7.356;2023-08-21T00:08:01;27.50;99.90
19908;DHT22;10116;53.112;7.356;2023-08-21T00:10:26;27.50;99.90
19908;DHT22;10116;53.112;7.356;2023-08-21T00:12:52;27.50;99.90
19908;DHT22;10116;53.112;7.356;2023-08-21T00:15:18;27.50;99.90
19908;DHT22;10116;53.112;7.356;2023-08-21T00:17:43;27.50;99.90
19908;DHT22;10116;53.112;7.356;2023-08-21T00:20:09;27.50;99.90
19908;DHT22;10116;53.112;7.356;2023-08-21T00:22:36;27.50;99.90
19908;DHT22;10116;53.112;7.356;2023-08-21T00:25:02;27.50;99.90
19908;DHT22;10116;53.112;7.356;2023-08-21T00:27:28;27.50;99.90
19908;DHT22;10116;53.112;7.356;2023-08-21T00:29:53;27.50;99.90
19908;DHT22;10116;53.112;7.356;2023-08-21T00:32:19;27.50;99.90
19908;DHT22;10116;53.112;7.356;2023-08-21T00:34:44;27.50;99.90
19908;DHT22;10116;53.112;7.356;2023-08-21T00:37:10;27.50;99.90
19908;DHT22;10116;53.112;7.356;2023-08-21T00:39:36;27.50;99.90
19908;DHT22;10116;53.112;7.356;2023-08-21T00:42:02;27.50;99.90
19908;DHT22;10116;53.112;7.356;2023-08-21T00:44:27;27.50;99.90
19908;DHT22;10116;53.112;7.356;2023-08-21T00:46:53;27.50;99.90
19908;DHT22;10116;53.112;7.356;2023-08-21T00:49:20;27.40;99.90
19908;DHT22;10116;53.112;7.356;2023-08-21T00:51:46;27.40;99.90
19908;DHT22;10116;53.112;7.356;2023-08-21T00:54:12;27.40;99.90
19908;DHT22;10116;53.112;7.356;2023-08-21T00:56:38;27.40;99.90
19908;DHT22;10116;53.112;7.356;2023-08-21T00:59:03;27.40;99.90
19908;DHT22;10116;53.112;7.356;2023-08-21T01:01:29;27.40;99.90
19908;DHT22;10116;53.112;7.356;2023-08-21T01:03:55;27.40;99.90
19908;DHT22;10116;53.112;7.356;2023-08-21T01:06:21;27.40;99.90
19908;DHT22;10116;53.112;7.356;2023-08-21T01:08:55;27.40;99.90
19908;DHT22;10116;53.112;7.356;2023-08-21T01:11:35;27.30;99.90
19908;DHT22;10116;53.112;7.356;2023-08-21T01:16:37;27.40;99.90
19908;DHT22;10116;53.112;7.356;2023-08-21T01:19:03;27.30;99.90
19908;DHT22;10116;53.112;7.356;2023-08-21T01:21:34;27.40;99.90
19908;DHT22;10116;53.112;7.356;2023-08-21T01:24:00;27.30;99.90
19908;DHT22;10116;53.112;7.356;2023-08-21T01:26:25;27.40;99.90
19908;DHT22;10116;53.112;7.356;2023-08-21T01:28:51;27.40;99.90
19908;DHT22;10116;53.112;7.356;2023-08-21T01:31:30;27.40;99.90
19908;DHT22;10116;53.112;7.356;2023-08-21T01:34:02;27.40;99.90
19908;DHT22;10116;53.112;7.356;2023-08-21T01:36:29;27.30;99.90
19908;DHT22;10116;53.112;7.356;2023-08-21T01:38:56;27.30;99.90
19908;DHT22;10116;53.112;7.356;2023-08-21T01:41:24;27.30;99.90
19908;DHT22;10116;53.112;7.356;2023-08-21T01:43:50;27.30;99.90
19908;DHT22;10116;53.112;7.356;2023-08-21T01:46:16;27.30;99.90
19908;DHT22;10116;53.112;7.356;2023-08-21T01:48:41;27.30;99.90
19908;DHT22;10116;53.112;7.356;2023-08-21T01:51:07;27.30;99.90
19908;DHT22;10116;53.112;7.356;2023-08-21T01:53:33;27.30;99.90
19908;DHT22;10116;53.112;7.356;2023-08-21T01:55:58;27.30;99.90
19908;DHT22;10116;53.112;7.356;2023-08-21T01:58:24;27.30;99.90
19908;DHT22;10116;53.112;7.356;2023-08-21T02:00:49;27.30;99.90
19908;DHT22;10116;53.112;7.356;2023-08-21T02:03:15;27.30;99.90
19908;DHT22;10116;53.112;7.356;2023-08-21T02:05:41;27.30;99.90
19908;DHT22;10116;53.112;7.356;2023-08-21T02:08:13;27.30;99.90
19908;DHT22;10116;53.112;7.356;2023-08-21T02:10:52;27.30;99.90
19908;DHT22;10116;53.112;7.356;2023-08-21T02:13:18;27.30;99.90
19908;DHT22;10116;53.112;7.356;2023-08-21T02:15:44;27.20;99.90
19908;DHT22;10116;53.112;7.356;2023-08-21T02:18:10;27.30;99.90
19908;DHT22;10116;53.112;7.356;2023-08-21T02:20:35;27.20;99.90
19908;DHT22;10116;53.112;7.356;2023-08-21T02:23:01;27.30;99.90
19908;DHT22;10116;53.112;7.356;2023-08-21T02:25:26;27.30;99.90
19908;DHT22;10116;53.112;7.356;2023-08-21T02:27:52;27.30;99.90
19908;DHT22;10116;53.112;7.356;2023-08-21T02:30:17;27.20;99.90
19908;DHT22;10116;53.112;7.356;2023-08-21T02:32:43;27.20;99.90
19908;DHT22;10116;53.112;7.356;2023-08-21T02:35:09;27.20;99.90
19908;DHT22;10116;53.112;7.356;2023-08-21T02:37:35;27.20;99.90
19908;DHT22;10116;53.112;7.356;2023-08-21T02:40:05;27.20;99.90
19908;DHT22;10116;53.112;7.356;2023-08-21T02:42:33;27.20;99.90
19908;DHT22;10116;53.112;7.356;2023-08-21T02:44:59;27.20;99.90
19908;DHT22;10116;53.112;7.356;2023-08-21T02:47:24;27.20;99.90
19908;DHT22;10116;53.112;7.356;2023-08-21T02:49:50;27.20;99.90
19908;DHT22;10116;53.112;7.356;2023-08-21T02:52:17;27.20;99.90
19908;DHT22;10116;53.112;7.356;2023-08-21T02:54:42;27.20;99.90
19908;DHT22;10116;53.112;7.356;2023-08-21T02:57:08;27.20;99.90
19908;DHT22;10116;53.112;7.356;2023-08-21T02:59:34;27.20;99.90
19908;DHT22;10116;53.112;7.356;2023-08-21T03:01:59;27.20;99.90
19908;DHT22;10116;53.112;7.356;2023-08-21T03:04:25;27.20;99.90
19908;DHT22;10116;53.112;7.356;2023-08-21T03:06:50;27.20;99.90
19908;DHT22;10116;53.112;7.356;2023-08-21T03:09:16;27.20;99.90
19908;DHT22;10116;53.112;7.356;2023-08-21T03:11:41;27.30;99.90
19908;DHT22;10116;53.112;7.356;2023-08-21T03:14:07;27.30;99.90
19908;DHT22;10116;53.112;7.356;2023-08-21T03:16:33;27.30;99.90
19908;DHT22;10116;53.112;7.356;2023-08-21T03:19:00;27.40;99.90
19908;DHT22;10116;53.112;7.356;2023-08-21T03:21:26;27.30;99.90
19908;DHT22;10116;53.112;7.356;2023-08-21T03:23:55;27.40;99.90
19908;DHT22;10116;53.112;7.356;2023-08-21T03:26:21;27.40;99.90
19908;DHT22;10116;53.112;7.356;2023-08-21T03:28:47;27.40;99.90
19908;DHT22;10116;53.112;7.356;2023-08-21T03:31:14;27.40;99.90
19908;DHT22;10116;53.112;7.356;2023-08-21T03:33:39;27.50;99.90
19908;DHT22;10116;53.112;7.356;2023-08-21T03:36:05;27.50;99.90
19908;DHT22;10116;53.112;7.356;2023-08-21T03:38:31;27.50;99.90
19908;DHT22;10116;53.112;7.356;2023-08-21T03:40:56;27.50;99.90
19908;DHT22;10116;53.112;7.356;2023-08-21T03:43:22;27.60;99.90
19908;DHT22;10116;53.112;7.356;2023-08-21T03:45:48;27.60;99.90
19908;DHT22;10116;53.112;7.356;2023-08-21T03:48:13;27.70;99.90
19908;DHT22;10116;53.112;7.356;2023-08-21T03:50:39;27.70;99.90
19908;DHT22;10116;53.112;7.356;2023-08-21T03:53:04;27.70;99.90
19908;DHT22;10116;53.112;7.356;2023-08-21T03:55:30;27.70;99.90
19908;DHT22;10116;53.112;7.356;2023-08-21T03:57:56;27.70;99.90
19908;DHT22;10116;53.112;7.356;2023-08-21T04:00:21;27.70;99.90
19908;DHT22;10116;53.112;7.356;2023-08-21T04:02:47;27.70;99.90
19908;DHT22;10116;53.112;7.356;2023-08-21T04:05:13;27.70;99.90
19908;DHT22;10116;53.112;7.356;2023-08-21T04:07:39;27.70;99.90
19908;DHT22;10116;53.112;7.356;2023-08-21T04:10:05;27.70;99.90
19908;DHT22;10116;53.112;7.356;2023-08-21T04:12:31;27.70;99.90
19908;DHT22;10116;53.112;7.356;2023-08-21T04:14:57;27.70;99.90
19908;DHT22;10116;53.112;7.356;2023-08-21T04:17:23;27.70;99.90
19908;DHT22;10116;53.112;7.356;2023-08-21T04:19:50;27.70;99.90
19908;DHT22;10116;53.112;7.356;2023-08-21T04:22:15;27.70;99.90
19908;DHT22;10116;53.112;7.356;2023-08-21T04:24:42;27.70;99.90
19908;DHT22;10116;53.112;7.356;2023-08-21T04:27:07;27.70;99.90
19908;DHT22;10116;53.112;7.356;2023-08-21T04:29:35;27.70;99.90
19908;DHT22;10116;53.112;7.356;2023-08-21T04:32:00;27.70;99.90
19908;DHT22;10116;53.112;7.356;2023-08-21T04:34:26;27.70;99.90
19908;DHT22;10116;53.112;7.356;2023-08-21T04:36:51;27.60;99.90
19908;DHT22;10116;53.112;7.356;2023-08-21T04:39:18;27.60;99.90
19908;DHT22;10116;53.112;7.356;2023-08-21T04:41:43;27.70;99.90
19908;DHT22;10116;53.112;7.356;2023-08-21T04:44:09;27.60;99.90
19908;DHT22;10116;53.112;7.356;2023-08-21T04:46:34;27.60;99.90
19908;DHT22;10116;53.112;7.356;2023-08-21T04:49:00;27.60;99.90
19908;DHT22;10116;53.112;7.356;2023-08-21T04:51:25;27.60;99.90
19908;DHT22;10116;53.112;7.356;2023-08-21T04:53:51;27.60;99.90
19908;DHT22;10116;53.112;7.356;2023-08-21T04:56:17;27.60;99.90
19908;DHT22;10116;53.112;7.356;2023-08-21T04:58:42;27.60;99.90
19908;DHT22;10116;53.112;7.356;2023-08-21T05:01:08;27.60;99.90
19908;DHT22;10116;53.112;7.356;2023-08-21T05:03:34;27.60;99.90
19908;DHT22;10116;53.112;7.356;2023-08-21T05:05:59;27.60;99.90
19908;DHT22;10116;53.112;7.356;2023-08-21T05:08:26;27.60;99.90
19908;DHT22;10116;53.112;7.356;2023-08-21T05:10:59;27.60;99.90
19908;DHT22;10116;53.112;7.356;2023-08-21T05:13:25;27.60;99.90
19908;DHT22;10116;53.112;7.356;2023-08-21T05:15:58;27.60;99.90
19908;DHT22;10116;53.112;7.356;2023-08-21T05:18:24;27.60;99.90
19908;DHT22;10116;53.112;7.356;2023-08-21T05:20:51;27.70;99.90
19908;DHT22;10116;53.112;7.356;2023-08-21T05:23:17;27.70;99.90
19908;DHT22;10116;53.112;7.356;2023-08-21T05:25:46;27.70;99.90
19908;DHT22;10116;53.112;7.356;2023-08-21T05:28:13;27.70;99.90
19908;DHT22;10116;53.112;7.356;2023-08-21T05:30:38;27.80;99.90
19908;DHT22;10116;53.112;7.356;2023-08-21T05:33:04;27.80;99.90
19908;DHT22;10116;53.112;7.356;2023-08-21T05:35:36;27.80;99.90
19908;DHT22;10116;53.112;7.356;2023-08-21T05:38:03;27.90;99.90
19908;DHT22;10116;53.112;7.356;2023-08-21T05:40:28;27.90;99.90
19908;DHT22;10116;53.112;7.356;2023-08-21T05:42:54;28.00;99.90
19908;DHT22;10116;53.112;7.356;2023-08-21T05:45:20;28.10;99.90
19908;DHT22;10116;53.112;7.356;2023-08-21T05:47:45;28.10;99.90
19908;DHT22;10116;53.112;7.356;2023-08-21T05:50:11;28.20;99.90
19908;DHT22;10116;53.112;7.356;2023-08-21T05:52:37;28.20;99.90
19908;DHT22;10116;53.112;7.356;2023-08-21T05:55:02;28.20;99.90
19908;DHT22;10116;53.112;7.356;2023-08-21T05:57:28;28.30;99.90
19908;DHT22;10116;53.112;7.356;2023-08-21T05:59:54;28.30;99.90
19908;DHT22;10116;53.112;7.356;2023-08-21T06:02:19;28.30;99.90
19908;DHT22;10116;53.112;7.356;2023-08-21T06:04:45;28.30;99.90
19908;DHT22;10116;53.112;7.356;2023-08-21T06:07:11;28.30;99.90
19908;DHT22;10116;53.112;7.356;2023-08-21T06:09:37;28.30;99.90
19908;DHT22;10116;53.112;7.356;2023-08-21T06:12:05;28.30;99.90
19908;DHT22;10116;53.112;7.356;2023-08-21T06:14:31;28.30;99.90
19908;DHT22;10116;53.112;7.356;2023-08-21T06:17:01;28.30;99.90
19908;DHT22;10116;53.112;7.356;2023-08-21T06:19:27;28.40;99.90
19908;DHT22;10116;53.112;7.356;2023-08-21T06:21:54;28.30;99.90
19908;DHT22;10116;53.112;7.356;2023-08-21T06:24:20;28.40;99.90
19908;DHT22;10116;53.112;7.356;2023-08-21T06:26:45;28.30;99.90
19908;DHT22;10116;53.112;7.356;2023-08-21T06:29:11;28.40;99.90
19908;DHT22;10116;53.112;7.356;2023-08-21T06:31:36;28.40;99.90
19908;DHT22;10116;53.112;7.356;2023-08-21T06:34:02;28.30;99.90
19908;DHT22;10116;53.112;7.356;2023-08-21T06:36:28;28.30;99.90
19908;DHT22;10116;53.112;7.356;2023-08-21T06:38:54;28.40;99.90
19908;DHT22;10116;53.112;7.356;2023-08-21T06:41:20;28.30;99.90
19908;DHT22;10116;53.112;7.356;2023-08-21T06:43:45;28.30;99.90
19908;DHT22;10116;53.112;7.356;2023-08-21T06:46:11;28.40;99.90
19908;DHT22;10116;53.112;7.356;2023-08-21T06:48:39;28.40;99.90
19908;DHT22;10116;53.112;7.356;2023-08-21T06:51:06;28.30;99.90
19908;DHT22;10116;53.112;7.356;2023-08-21T06:53:32;28.30;99.90
19908;DHT22;10116;53.112;7.356;2023-08-21T06:55:57;28.30;99.90
19908;DHT22;10116;53.112;7.356;2023-08-21T06:58:23;28.30;99.90
19908;DHT22;10116;53.112;7.356;2023-08-21T07:00:48;28.30;99.90
19908;DHT22;10116;53.112;7.356;2023-08-21T07:03:14;28.30;99.90
19908;DHT22;10116;53.112;7.356;2023-08-21T07:05:40;28.30;99.90
19908;DHT22;10116;53.112;7.356;2023-08-21T07:08:05;28.30;99.90
19908;DHT22;10116;53.112;7.356;2023-08-21T07:10:36;28.20;99.90
19908;DHT22;10116;53.112;7.356;2023-08-21T07:13:02;28.30;99.90
19908;DHT22;10116;53.112;7.356;2023-08-21T07:15:29;28.30;99.90
19908;DHT22;10116;53.112;7.356;2023-08-21T07:17:54;28.30;99.90
19908;DHT22;10116;53.112;7.356;2023-08-21T07:20:21;28.30;99.90
19908;DHT22;10116;53.112;7.356;2023-08-21T07:22:47;28.30;99.90
19908;DHT22;10116;53.112;7.356;2023-08-21T07:25:12;28.30;99.90
19908;DHT22;10116;53.112;7.356;2023-08-21T07:27:38;28.30;99.90
19908;DHT22;10116;53.112;7.356;2023-08-21T07:30:05;28.30;99.90
19908;DHT22;10116;53.112;7.356;2023-08-21T07:32:31;28.30;99.90
19908;DHT22;10116;53.112;7.356;2023-08-21T07:34:57;28.30;99.90
19908;DHT22;10116;53.112;7.356;2023-08-21T07:37:23;28.40;99.90
19908;DHT22;10116;53.112;7.356;2023-08-21T07:39:48;28.40;99.90
19908;DHT22;10116;53.112;7.356;2023-08-21T07:42:14;28.40;99.90
19908;DHT22;10116;53.112;7.356;2023-08-21T07:44:40;28.40;99.90
19908;DHT22;10116;53.112;7.356;2023-08-21T07:47:06;28.40;99.90
19908;DHT22;10116;53.112;7.356;2023-08-21T07:49:32;28.40;99.90
19908;DHT22;10116;53.112;7.356;2023-08-21T07:51:58;28.40;99.90
19908;DHT22;10116;53.112;7.356;2023-08-21T07:54:23;28.40;99.90
19908;DHT22;10116;53.112;7.356;2023-08-21T07:56:52;28.40;99.90
19908;DHT22;10116;53.112;7.356;2023-08-21T07:59:17;28.40;99.90
19908;DHT22;10116;53.112;7.356;2023-08-21T08:01:45;28.40;99.90
19908;DHT22;10116;53.112;7.356;2023-08-21T08:04:10;28.40;99.90
19908;DHT22;10116;53.112;7.356;2023-08-21T08:06:36;28.40;99.90
19908;DHT22;10116;53.112;7.356;2023-08-21T08:09:02;28.40;99.90
19908;DHT22;10116;53.112;7.356;2023-08-21T08:11:30;28.40;99.90
19908;DHT22;10116;53.112;7.356;2023-08-21T08:13:56;28.40;99.90
19908;DHT22;10116;53.112;7.356;2023-08-21T08:16:22;28.40;99.90
19908;DHT22;10116;53.112;7.356;2023-08-21T08:18:47;28.40;99.90
19908;DHT22;10116;53.112;7.356;2023-08-21T08:21:13;28.40;99.90
19908;DHT22;10116;53.112;7.356;2023-08-21T08:23:39;28.40;99.90
19908;DHT22;10116;53.112;7.356;2023-08-21T08:26:05;28.40;99.90
19908;DHT22;10116;53.112;7.356;2023-08-21T08:28:30;28.40;99.90
19908;DHT22;10116;53.112;7.356;2023-08-21T08:30:56;28.40;99.90
19908;DHT22;10116;53.112;7.356;2023-08-21T08:33:23;28.30;99.90
19908;DHT22;10116;53.112;7.356;2023-08-21T08:35:48;28.40;99.90
19908;DHT22;10116;53.112;7.356;2023-08-21T08:38:14;28.40;99.90
19908;DHT22;10116;53.112;7.356;2023-08-21T08:40:44;28.30;99.90
19908;DHT22;10116;53.112;7.356;2023-08-21T08:43:11;28.40;99.90
19908;DHT22;10116;53.112;7.356;2023-08-21T08:45:37;28.30;99.90
19908;DHT22;10116;53.112;7.356;2023-08-21T08:48:04;28.30;99.90
19908;DHT22;10116;53.112;7.356;2023-08-21T08:50:31;28.30;99.90
19908;DHT22;10116;53.112;7.356;2023-08-21T08:52:58;28.30;99.90
19908;DHT22;10116;53.112;7.356;2023-08-21T08:55:25;28.30;99.90
19908;DHT22;10116;53.112;7.356;2023-08-21T08:57:52;28.30;99.90
19908;DHT22;10116;53.112;7.356;2023-08-21T09:00:18;28.30;99.90
19908;DHT22;10116;53.112;7.356;2023-08-21T09:02:45;28.30;99.90
19908;DHT22;10116;53.112;7.356;2023-08-21T09:05:11;28.30;99.90
19908;DHT22;10116;53.112;7.356;2023-08-21T09:07:38;28.30;99.90
19908;DHT22;10116;53.112;7.356;2023-08-21T09:10:04;28.30;99.90
19908;DHT22;10116;53.112;7.356;2023-08-21T09:12:31;28.20;99.90
19908;DHT22;10116;53.112;7.356;2023-08-21T09:14:58;28.20;99.90
19908;DHT22;10116;53.112;7.356;2023-08-21T09:17:25;28.20;99.90
19908;DHT22;10116;53.112;7.356;2023-08-21T09:19:51;28.30;99.90
19908;DHT22;10116;53.112;7.356;2023-08-21T09:22:18;28.20;99.90
19908;DHT22;10116;53.112;7.356;2023-08-21T09:25:01;28.20;99.90
19908;DHT22;10116;53.112;7.356;2023-08-21T09:27:31;28.30;99.90
19908;DHT22;10116;53.112;7.356;2023-08-21T09:29:57;28.20;99.90
19908;DHT22;10116;53.112;7.356;2023-08-21T09:32:23;28.20;99.90
19908;DHT22;10116;53.112;7.356;2023-08-21T09:34:48;28.20;99.90
19908;DHT22;10116;53.112;7.356;2023-08-21T09:37:16;28.20;99.90
19908;DHT22;10116;53.112;7.356;2023-08-21T09:39:42;28.20;99.90
19908;DHT22;10116;53.112;7.356;2023-08-21T09:42:08;28.20;99.90
19908;DHT22;10116;53.112;7.356;2023-08-21T09:44:38;28.20;99.90
19908;DHT22;10116;53.112;7.356;2023-08-21T09:47:08;28.20;99.90
19908;DHT22;10116;53.112;7.356;2023-08-21T09:49:35;28.20;99.90
19908;DHT22;10116;53.112;7.356;2023-08-21T09:52:04;28.20;99.90
19908;DHT22;10116;53.112;7.356;2023-08-21T09:54:31;28.20;99.90
19908;DHT22;10116;53.112;7.356;2023-08-21T09:57:00;28.20;99.90
19908;DHT22;10116;53.112;7.356;2023-08-21T09:59:26;28.20;99.90
19908;DHT22;10116;53.112;7.356;2023-08-21T10:01:52;28.20;99.90
19908;DHT22;10116;53.112;7.356;2023-08-21T10:04:20;28.20;99.90
19908;DHT22;10116;53.112;7.356;2023-08-21T10:06:47;28.20;99.90
19908;DHT22;10116;53.112;7.356;2023-08-21T10:09:14;28.20;99.90
19908;DHT22;10116;53.112;7.356;2023-08-21T10:11:42;28.30;99.90
19908;DHT22;10116;53.112;7.356;2023-08-21T10:14:08;28.30;99.90
19908;DHT22;10116;53.112;7.356;2023-08-21T10:16:34;28.40;99.90
19908;DHT22;10116;53.112;7.356;2023-08-21T10:19:03;28.40;99.90
19908;DHT22;10116;53.112;7.356;2023-08-21T10:21:34;28.40;99.90
19908;DHT22;10116;53.112;7.356;2023-08-21T10:24:00;28.50;99.90
19908;DHT22;10116;53.112;7.356;2023-08-21T10:26:26;28.50;99.90
19908;DHT22;10116;53.112;7.356;2023-08-21T10:28:58;28.50;99.90
19908;DHT22;10116;53.112;7.356;2023-08-21T10:33:54;28.60;99.90
19908;DHT22;10116;53.112;7.356;2023-08-21T10:39:19;28.50;99.90
19908;DHT22;10116;53.112;7.356;2023-08-21T10:47:22;28.50;99.90
19908;DHT22;10116;53.112;7.356;2023-08-21T10:52:26;28.50;99.90
19908;DHT22;10116;53.112;7.356;2023-08-21T10:54:59;28.50;99.90
19908;DHT22;10116;53.112;7.356;2023-08-21T10:57:30;28.50;99.90
19908;DHT22;10116;53.112;7.356;2023-08-21T10:59:58;28.50;99.90
19908;DHT22;10116;53.112;7.356;2023-08-21T11:02:26;28.50;99.90
19908;DHT22;10116;53.112;7.356;2023-08-21T11:04:52;28.50;99.90
19908;DHT22;10116;53.112;7.356;2023-08-21T11:07:18;28.50;99.90
19908;DHT22;10116;53.112;7.356;2023-08-21T11:09:44;28.50;99.90
19908;DHT22;10116;53.112;7.356;2023-08-21T11:12:15;28.50;99.90
19908;DHT22;10116;53.112;7.356;2023-08-21T11:14:41;28.50;99.90
19908;DHT22;10116;53.112;7.356;2023-08-21T11:17:08;28.60;99.90
19908;DHT22;10116;53.112;7.356;2023-08-21T11:19:35;28.50;99.90
19908;DHT22;10116;53.112;7.356;2023-08-21T11:22:01;28.60;99.90
19908;DHT22;10116;53.112;7.356;2023-08-21T11:27:05;28.60;99.90
19908;DHT22;10116;53.112;7.356;2023-08-21T11:29:37;28.60;99.90
19908;DHT22;10116;53.112;7.356;2023-08-21T11:32:12;28.50;99.90
19908;DHT22;10116;53.112;7.356;2023-08-21T11:34:38;28.60;99.90
19908;DHT22;10116;53.112;7.356;2023-08-21T11:37:04;28.60;99.90
19908;DHT22;10116;53.112;7.356;2023-08-21T11:39:57;28.50;99.90
19908;DHT22;10116;53.112;7.356;2023-08-21T11:42:29;28.50;99.90
19908;DHT22;10116;53.112;7.356;2023-08-21T11:44:56;28.50;99.90
19908;DHT22;10116;53.112;7.356;2023-08-21T11:47:23;28.50;99.90
19908;DHT22;10116;53.112;7.356;2023-08-21T11:49:49;28.50;99.90
19908;DHT22;10116;53.112;7.356;2023-08-21T11:52:20;28.50;99.90
19908;DHT22;10116;53.112;7.356;2023-08-21T11:54:49;28.50;99.90
19908;DHT22;10116;53.112;7.356;2023-08-21T11:57:15;28.50;99.90
19908;DHT22;10116;53.112;7.356;2023-08-21T11:59:40;28.50;99.90
19908;DHT22;10116;53.112;7.356;2023-08-21T12:02:25;28.50;99.90
19908;DHT22;10116;53.112;7.356;2023-08-21T12:05:13;28.50;99.90
19908;DHT22;10116;53.112;7.356;2023-08-21T12:07:39;28.50;99.90
19908;DHT22;10116;53.112;7.356;2023-08-21T12:10:05;28.50;99.90
19908;DHT22;10116;53.112;7.356;2023-08-21T12:12:31;28.50;99.90
19908;DHT22;10116;53.112;7.356;2023-08-21T12:14:56;28.60;99.90
19908;DHT22;10116;53.112;7.356;2023-08-21T12:17:22;28.60;99.90
19908;DHT22;10116;53.112;7.356;2023-08-21T12:19:47;28.60;99.90
19908;DHT22;10116;53.112;7.356;2023-08-21T12:22:13;28.60;99.90
19908;DHT22;10116;53.112;7.356;2023-08-21T12:24:39;28.60;99.90
19908;DHT22;10116;53.112;7.356;2023-08-21T12:27:06;28.60;99.90
19908;DHT22;10116;53.112;7.356;2023-08-21T12:29:31;28.60;99.90
19908;DHT22;10116;53.112;7.356;2023-08-21T12:31:57;28.60;99.90
19908;DHT22;10116;53.112;7.356;2023-08-21T12:34:22;28.60;99.90
19908;DHT22;10116;53.112;7.356;2023-08-21T12:36:50;28.50;99.90
19908;DHT22;10116;53.112;7.356;2023-08-21T12:39:16;28.60;99.90
19908;DHT22;10116;53.112;7.356;2023-08-21T12:41:42;28.60;99.90
19908;DHT22;10116;53.112;7.356;2023-08-21T12:44:08;28.60;99.90
19908;DHT22;10116;53.112;7.356;2023-08-21T12:46:37;28.60;99.90
19908;DHT22;10116;53.112;7.356;2023-08-21T12:49:03;28.60;99.90
19908;DHT22;10116;53.112;7.356;2023-08-21T12:51:29;28.60;99.90
19908;DHT22;10116;53.112;7.356;2023-08-21T12:53:55;28.60;99.90
19908;DHT22;10116;53.112;7.356;2023-08-21T12:56:21;28.50;99.90
19908;DHT22;10116;53.112;7.356;2023-08-21T12:58:47;28.60;99.90
19908;DHT22;10116;53.112;7.356;2023-08-21T13:01:13;28.50;99.90
19908;DHT22;10116;53.112;7.356;2023-08-21T13:03:46;28.50;99.90
19908;DHT22;10116;53.112;7.356;2023-08-21T13:06:15;28.60;99.90
19908;DHT22;10116;53.112;7.356;2023-08-21T13:08:41;28.60;99.90
19908;DHT22;10116;53.112;7.356;2023-08-21T13:11:07;28.60;99.90
19908;DHT22;10116;53.112;7.356;2023-08-21T13:13:33;28.60;99.90
19908;DHT22;10116;53.112;7.356;2023-08-21T13:15:59;28.60;99.90
19908;DHT22;10116;53.112;7.356;2023-08-21T13:18:26;28.70;99.90
19908;DHT22;10116;53.112;7.356;2023-08-21T13:20:51;28.70;99.90
19908;DHT22;10116;53.112;7.356;2023-08-21T13:23:17;28.70;99.90
19908;DHT22;10116;53.112;7.356;2023-08-21T13:25:42;28.70;99.90
19908;DHT22;10116;53.112;7.356;2023-08-21T13:28:08;28.70;99.90
19908;DHT22;10116;53.112;7.356;2023-08-21T13:30:34;28.70;99.90
19908;DHT22;10116;53.112;7.356;2023-08-21T13:32:59;28.70;99.90
19908;DHT22;10116;53.112;7.356;2023-08-21T13:35:25;28.70;99.90
19908;DHT22;10116;53.112;7.356;2023-08-21T13:37:51;28.70;99.90
19908;DHT22;10116;53.112;7.356;2023-08-21T13:40:17;28.70;99.90
19908;DHT22;10116;53.112;7.356;2023-08-21T13:42:44;28.70;99.90
19908;DHT22;10116;53.112;7.356;2023-08-21T13:45:12;28.70;99.90
19908;DHT22;10116;53.112;7.356;2023-08-21T13:47:39;28.70;99.90
19908;DHT22;10116;53.112;7.356;2023-08-21T13:50:06;28.70;99.90
19908;DHT22;10116;53.112;7.356;2023-08-21T13:52:32;28.70;99.90
19908;DHT22;10116;53.112;7.356;2023-08-21T13:54:58;28.70;99.90
19908;DHT22;10116;53.112;7.356;2023-08-21T13:57:24;28.70;99.90
19908;DHT22;10116;53.112;7.356;2023-08-21T13:59:50;28.70;99.90
19908;DHT22;10116;53.112;7.356;2023-08-21T14:02:15;28.70;99.90
19908;DHT22;10116;53.112;7.356;2023-08-21T14:04:41;28.80;99.90
19908;DHT22;10116;53.112;7.356;2023-08-21T14:07:07;28.80;99.90
19908;DHT22;10116;53.112;7.356;2023-08-21T14:09:32;28.90;99.90
19908;DHT22;10116;53.112;7.356;2023-08-21T14:11:58;28.90;99.90
19908;DHT22;10116;53.112;7.356;2023-08-21T14:14:23;28.90;99.90
19908;DHT22;10116;53.112;7.356;2023-08-21T14:16:49;28.90;99.90
19908;DHT22;10116;53.112;7.356;2023-08-21T14:19:14;29.00;99.90
19908;DHT22;10116;53.112;7.356;2023-08-21T14:21:40;29.00;99.90
19908;DHT22;10116;53.112;7.356;2023-08-21T14:24:06;29.00;99.90
19908;DHT22;10116;53.112;7.356;2023-08-21T14:26:33;29.00;99.90
19908;DHT22;10116;53.112;7.356;2023-08-21T14:28:58;29.00;99.90
19908;DHT22;10116;53.112;7.356;2023-08-21T14:31:24;29.00;99.90
19908;DHT22;10116;53.112;7.356;2023-08-21T14:33:49;28.90;99.90
19908;DHT22;10116;53.112;7.356;2023-08-21T14:36:15;29.00;99.90
19908;DHT22;10116;53.112;7.356;2023-08-21T14:38:41;29.00;99.90
19908;DHT22;10116;53.112;7.356;2023-08-21T14:41:07;29.00;99.90
19908;DHT22;10116;53.112;7.356;2023-08-21T14:43:32;28.90;99.90
19908;DHT22;10116;53.112;7.356;2023-08-21T14:45:58;29.00;99.90
19908;DHT22;10116;53.112;7.356;2023-08-21T14:48:24;28.90;99.90
19908;DHT22;10116;53.112;7.356;2023-08-21T14:50:49;28.90;99.90
19908;DHT22;10116;53.112;7.356;2023-08-21T14:53:15;28.90;99.90
19908;DHT22;10116;53.112;7.356;2023-08-21T14:55:41;28.90;99.90
19908;DHT22;10116;53.112;7.356;2023-08-21T14:58:06;28.90;99.90
19908;DHT22;10116;53.112;7.356;2023-08-21T15:00:34;28.90;99.90
19908;DHT22;10116;53.112;7.356;2023-08-21T15:03:00;28.90;99.90
19908;DHT22;10116;53.112;7.356;2023-08-21T15:05:27;28.90;99.90
19908;DHT22;10116;53.112;7.356;2023-08-21T15:07:52;28.90;99.90
19908;DHT22;10116;53.112;7.356;2023-08-21T15:10:20;28.90;99.90
19908;DHT22;10116;53.112;7.356;2023-08-21T15:12:46;28.90;99.90
19908;DHT22;10116;53.112;7.356;2023-08-21T15:15:11;28.90;99.90
19908;DHT22;10116;53.112;7.356;2023-08-21T15:17:37;28.90;99.90
19908;DHT22;10116;53.112;7.356;2023-08-21T15:20:03;28.90;99.90
19908;DHT22;10116;53.112;7.356;2023-08-21T15:22:32;28.90;99.90
19908;DHT22;10116;53.112;7.356;2023-08-21T15:24:58;28.90;99.90
19908;DHT22;10116;53.112;7.356;2023-08-21T15:27:24;28.90;99.90
19908;DHT22;10116;53.112;7.356;2023-08-21T15:29:50;28.90;99.90
19908;DHT22;10116;53.112;7.356;2023-08-21T15:32:15;28.90;99.90
19908;DHT22;10116;53.112;7.356;2023-08-21T15:34:41;28.90;99.90
19908;DHT22;10116;53.112;7.356;2023-08-21T15:37:07;28.80;99.90
19908;DHT22;10116;53.112;7.356;2023-08-21T15:39:32;28.80;99.90
19908;DHT22;10116;53.112;7.356;2023-08-21T15:41:58;28.80;99.90
19908;DHT22;10116;53.112;7.356;2023-08-21T15:44:23;28.80;99.90